createdAt,value
2023-03-04T00:01:09.800Z,4.64
2023-03-04T00:03:38.483Z,4.52
2023-03-04T00:06:07.741Z,4.53
2023-03-04T00:08:36.261Z,4.48
2023-03-04T00:11:05.142Z,4.49
2023-03-04T00:13:33.878Z,4.54
2023-03-04T00:16:03.752Z,4.53
2023-03-04T00:18:32.345Z,4.46
2023-03-04T00:21:00.815Z,4.39
2023-03-04T00:23:29.185Z,4.26
2023-03-04T00:25:57.632Z,4.27
2023-03-04T00:28:26.098Z,4.25
2023-03-04T00:30:54.712Z,4.28
2023-03-04T00:33:24.490Z,4.29
2023-03-04T00:35:53.357Z,4.28
2023-03-04T00:38:21.836Z,4.24
2023-03-04T00:40:50.322Z,4.25
2023-03-04T00:43:18.747Z,4.29
2023-03-04T00:45:47.182Z,4.30
2023-03-04T00:48:16.552Z,4.33
2023-03-04T00:50:46.356Z,4.40
2023-03-04T00:53:16.074Z,4.43
2023-03-04T00:55:45.112Z,4.43
2023-03-04T00:58:13.422Z,4.44
2023-03-04T01:00:41.937Z,4.36
2023-03-04T01:03:10.368Z,4.35
2023-03-04T01:05:38.890Z,4.37
2023-03-04T01:08:08.829Z,4.39
2023-03-04T01:10:37.237Z,4.37
2023-03-04T01:13:06.053Z,4.38
2023-03-04T01:15:35.485Z,4.39
2023-03-04T01:18:03.915Z,4.38
2023-03-04T01:20:32.336Z,4.41
2023-03-04T01:23:00.736Z,4.46
2023-03-04T01:25:30.604Z,4.47
2023-03-04T01:28:00.481Z,4.50
2023-03-04T01:30:28.948Z,4.49
2023-03-04T01:32:58.169Z,4.51
2023-03-04T01:35:26.769Z,4.50
2023-03-04T01:37:55.218Z,4.50
2023-03-04T01:40:23.693Z,4.52
2023-03-04T01:42:53.680Z,4.49
2023-03-04T01:45:22.570Z,4.42
2023-03-04T01:47:51.904Z,4.47
2023-03-04T01:50:24.026Z,4.41
2023-03-04T01:52:52.584Z,4.40
2023-03-04T01:55:23.806Z,4.32
2023-03-04T01:57:54.214Z,4.32
2023-03-04T02:00:32.047Z,4.32
2023-03-04T02:03:02.671Z,4.29
2023-03-04T02:05:31.792Z,4.31
2023-03-04T02:08:01.737Z,4.27
2023-03-04T02:10:30.281Z,4.37
2023-03-04T02:13:00.854Z,4.39
2023-03-04T02:15:29.692Z,4.38
2023-03-04T02:17:58.340Z,4.43
2023-03-04T02:20:41.644Z,4.44
2023-03-04T02:23:16.380Z,4.39
2023-03-04T02:25:49.083Z,4.39
2023-03-04T02:28:19.190Z,4.40
2023-03-04T02:30:48.065Z,4.39
2023-03-04T02:33:19.894Z,4.42
2023-03-04T02:35:48.521Z,4.40
2023-03-04T02:38:16.987Z,4.41
2023-03-04T02:40:49.945Z,4.40
2023-03-04T02:43:19.757Z,4.38
2023-03-04T02:45:50.663Z,4.37
2023-03-04T02:48:22.510Z,4.33
2023-03-04T02:50:53.144Z,4.32
2023-03-04T02:53:23.076Z,4.32
2023-03-04T02:55:51.958Z,4.32
2023-03-04T02:58:24.454Z,4.37
2023-03-04T03:00:52.877Z,4.34
2023-03-04T03:03:21.447Z,4.20
2023-03-04T03:05:50.379Z,4.28
2023-03-04T03:08:20.117Z,4.22
2023-03-04T03:10:48.877Z,4.21
2023-03-04T03:13:19.386Z,4.16
2023-03-04T03:15:50.210Z,4.12
2023-03-04T03:18:19.005Z,4.08
2023-03-04T03:20:47.650Z,4.07
2023-03-04T03:23:18.178Z,4.06
2023-03-04T03:25:46.598Z,4.03
2023-03-04T03:28:15.000Z,4.02
2023-03-04T03:30:43.463Z,4.07
2023-03-04T03:33:13.264Z,4.16
2023-03-04T03:35:41.908Z,4.22
2023-03-04T03:38:10.315Z,4.27
2023-03-04T03:40:38.809Z,4.26
2023-03-04T03:43:07.140Z,4.25
2023-03-04T03:45:35.587Z,4.19
2023-03-04T03:48:03.974Z,4.19
2023-03-04T03:50:33.770Z,4.05
2023-03-04T03:53:02.440Z,4.18
2023-03-04T03:55:30.826Z,4.09
2023-03-04T03:57:59.286Z,4.13
2023-03-04T04:00:27.773Z,4.12
2023-03-04T04:02:57.963Z,4.18
2023-03-04T04:05:26.450Z,4.20
2023-03-04T04:07:56.302Z,4.08
2023-03-04T04:10:24.765Z,4.20
2023-03-04T04:12:53.389Z,4.15
2023-03-04T04:15:22.058Z,4.15
2023-03-04T04:17:50.485Z,4.15
2023-03-04T04:20:19.067Z,4.15
2023-03-04T04:22:47.397Z,4.14
2023-03-04T04:25:17.385Z,4.19
2023-03-04T04:27:45.759Z,4.15
2023-03-04T04:30:14.771Z,4.10
2023-03-04T04:32:43.295Z,4.08
2023-03-04T04:35:11.793Z,4.06
2023-03-04T04:37:40.286Z,4.06
2023-03-04T04:40:10.148Z,4.08
2023-03-04T04:42:40.075Z,4.09
2023-03-04T04:45:09.936Z,4.12
2023-03-04T04:47:38.446Z,4.07
2023-03-04T04:50:07.953Z,4.06
2023-03-04T04:52:36.449Z,3.99
2023-03-04T04:55:05.151Z,4.00
2023-03-04T04:57:34.859Z,4.01
2023-03-04T05:00:05.612Z,3.98
2023-03-04T05:02:36.567Z,4.00
2023-03-04T05:05:05.142Z,4.01
2023-03-04T05:07:33.522Z,4.02
2023-03-04T05:10:01.949Z,4.05
2023-03-04T05:12:31.460Z,4.06
2023-03-04T05:15:00.012Z,4.07
2023-03-04T05:17:29.872Z,4.02
2023-03-04T05:19:58.356Z,4.02
2023-03-04T05:22:26.820Z,4.01
2023-03-04T05:24:55.507Z,3.98
2023-03-04T05:27:23.932Z,4.03
2023-03-04T05:29:52.384Z,4.05
2023-03-04T05:32:20.730Z,4.06
2023-03-04T05:34:50.712Z,4.07
2023-03-04T05:37:19.108Z,4.05
2023-03-04T05:39:47.580Z,4.07
2023-03-04T05:42:16.020Z,4.07
2023-03-04T05:44:44.553Z,4.12
2023-03-04T05:47:13.018Z,4.12
2023-03-04T05:49:41.964Z,4.09
2023-03-04T05:52:11.915Z,4.10
2023-03-04T05:54:40.375Z,4.05
2023-03-04T05:57:08.889Z,4.01
2023-03-04T05:59:37.330Z,4.01
2023-03-04T06:02:05.700Z,3.96
2023-03-04T06:04:34.260Z,3.95
2023-03-04T06:07:02.616Z,3.88
2023-03-04T06:09:33.446Z,3.82
2023-03-04T06:12:01.897Z,3.84
2023-03-04T06:14:30.286Z,3.87
2023-03-04T06:16:58.897Z,3.85
2023-03-04T06:19:27.241Z,3.83
2023-03-04T06:21:55.621Z,3.78
2023-03-04T06:24:23.997Z,3.72
2023-03-04T06:26:53.826Z,3.58
2023-03-04T06:29:22.483Z,3.45
2023-03-04T06:31:51.004Z,3.33
2023-03-04T06:34:19.761Z,3.28
2023-03-04T06:36:48.283Z,3.27
2023-03-04T06:39:16.739Z,3.25
2023-03-04T06:41:46.349Z,3.27
2023-03-04T06:44:16.198Z,3.33
2023-03-04T06:46:45.764Z,3.40
2023-03-04T06:49:14.267Z,3.50
2023-03-04T06:51:42.674Z,3.63
2023-03-04T06:54:11.525Z,3.73
2023-03-04T06:56:39.870Z,3.81
2023-03-04T06:59:08.415Z,3.85
2023-03-04T07:01:38.269Z,3.95
2023-03-04T07:04:07.041Z,4.05
2023-03-04T07:06:35.502Z,4.17
2023-03-04T07:09:03.954Z,4.30
2023-03-04T07:11:33.425Z,4.43
2023-03-04T07:14:01.864Z,4.55
2023-03-04T07:16:30.375Z,4.69
2023-03-04T07:19:00.367Z,4.79
2023-03-04T07:21:28.970Z,4.90
2023-03-04T07:23:58.174Z,4.86
2023-03-04T07:26:26.618Z,4.99
2023-03-04T07:28:57.346Z,5.09
2023-03-04T07:31:30.085Z,5.19
2023-03-04T07:34:01.648Z,5.31
2023-03-04T07:36:30.970Z,5.45
2023-03-04T07:38:59.342Z,5.71
2023-03-04T07:41:30.040Z,5.98
2023-03-04T07:43:58.959Z,6.21
2023-03-04T07:46:27.538Z,6.39
2023-03-04T07:48:58.101Z,6.71
2023-03-04T07:51:29.423Z,7.13
2023-03-04T07:54:00.320Z,7.57
2023-03-04T07:56:31.410Z,8.02
2023-03-04T07:59:00.274Z,8.49
2023-03-04T08:01:30.918Z,8.93
2023-03-04T08:03:59.953Z,9.21
2023-03-04T08:06:30.131Z,9.61
2023-03-04T08:09:00.472Z,9.70
2023-03-04T08:11:30.544Z,10.10
2023-03-04T08:13:59.142Z,10.29
2023-03-04T08:16:28.624Z,10.44
2023-03-04T08:18:58.861Z,10.60
2023-03-04T08:21:30.024Z,10.65
2023-03-04T08:24:01.894Z,10.75
2023-03-04T08:26:34.030Z,10.83
2023-03-04T08:29:04.380Z,10.71
2023-03-04T08:31:33.645Z,10.98
2023-03-04T08:34:03.622Z,10.88
2023-03-04T08:36:33.542Z,10.83
2023-03-04T08:39:01.993Z,10.83
2023-03-04T08:41:30.542Z,10.88
2023-03-04T08:43:59.007Z,10.73
2023-03-04T08:46:27.547Z,10.70
2023-03-04T08:48:56.059Z,10.60
2023-03-04T08:51:25.141Z,10.69
2023-03-04T08:53:55.049Z,10.70
2023-03-04T08:56:23.859Z,10.68
2023-03-04T08:58:52.168Z,10.75
2023-03-04T09:01:20.673Z,10.88
2023-03-04T09:03:50.146Z,10.97
2023-03-04T09:06:19.550Z,11.05
2023-03-04T09:08:48.252Z,10.99
2023-03-04T09:11:18.144Z,11.10
2023-03-04T09:13:46.634Z,11.11
2023-03-04T09:16:16.122Z,11.14
2023-03-04T09:18:45.335Z,10.91
2023-03-04T09:21:14.889Z,11.24
2023-03-04T09:23:43.519Z,11.33
2023-03-04T09:26:22.454Z,11.39
2023-03-04T09:28:53.273Z,11.38
2023-03-04T09:31:22.457Z,11.46
2023-03-04T09:33:51.607Z,11.51
2023-03-04T09:36:20.501Z,11.59
2023-03-04T09:38:49.126Z,11.65
2023-03-04T09:41:20.244Z,11.69
2023-03-04T09:43:52.059Z,11.76
2023-03-04T09:46:29.868Z,11.77
2023-03-04T09:48:59.650Z,11.74
2023-03-04T09:51:43.302Z,11.77
2023-03-04T09:54:17.582Z,11.75
2023-03-04T09:56:46.033Z,11.78
2023-03-04T09:59:27.223Z,11.79
2023-03-04T10:01:58.063Z,11.78
2023-03-04T10:04:36.313Z,11.60
2023-03-04T10:07:06.491Z,11.76
2023-03-04T10:09:46.278Z,11.66
2023-03-04T10:12:18.690Z,11.74
2023-03-04T10:14:53.881Z,11.81
2023-03-04T10:17:26.194Z,11.78
2023-03-04T10:19:58.906Z,11.81
2023-03-04T10:22:36.111Z,11.87
2023-03-04T10:25:18.104Z,11.85
2023-03-04T10:27:52.703Z,11.88
2023-03-04T10:30:37.909Z,12.07
2023-03-04T10:33:13.209Z,12.09
2023-03-04T10:35:45.144Z,12.17
2023-03-04T10:38:15.041Z,12.26
2023-03-04T10:40:45.879Z,12.34
2023-03-04T10:43:19.355Z,12.43
2023-03-04T10:45:50.875Z,12.54
2023-03-04T10:48:24.426Z,12.41
2023-03-04T10:50:52.918Z,12.65
2023-03-04T10:53:29.761Z,12.86
2023-03-04T10:55:58.277Z,13.00
2023-03-04T10:58:26.707Z,13.13
2023-03-04T11:01:04.974Z,13.23
2023-03-04T11:03:36.624Z,13.27
2023-03-04T11:06:13.186Z,13.32
2023-03-04T11:08:42.448Z,13.36
2023-03-04T11:11:31.337Z,13.29
2023-03-04T11:14:03.330Z,13.61
2023-03-04T11:16:35.007Z,13.77
2023-03-04T11:19:07.741Z,13.92
2023-03-04T11:21:40.914Z,14.01
2023-03-04T11:24:27.514Z,14.15
2023-03-04T11:27:00.614Z,14.26
2023-03-04T11:29:35.493Z,14.37
2023-03-04T11:32:12.506Z,14.50
2023-03-04T11:34:46.631Z,14.59
2023-03-04T11:37:22.904Z,14.74
2023-03-04T11:39:55.878Z,14.55
2023-03-04T11:42:33.780Z,14.80
2023-03-04T11:45:02.382Z,14.96
2023-03-04T11:47:50.173Z,15.03
2023-03-04T11:50:29.090Z,15.00
2023-03-04T11:53:14.564Z,15.08
2023-03-04T11:55:47.782Z,15.04
2023-03-04T11:58:48.607Z,15.18
2023-03-04T12:01:23.359Z,15.16
2023-03-04T12:04:13.404Z,15.19
2023-03-04T12:06:52.339Z,15.13
2023-03-04T12:09:34.015Z,15.22
2023-03-04T12:12:20.764Z,15.31
2023-03-04T12:14:57.497Z,15.34
2023-03-04T12:17:45.482Z,15.42
2023-03-04T12:20:39.313Z,15.43
2023-03-04T12:23:20.516Z,15.48
2023-03-04T12:25:56.870Z,15.56
2023-03-04T12:28:53.249Z,15.64
2023-03-04T12:31:34.268Z,15.73
2023-03-04T12:34:30.278Z,15.59
2023-03-04T12:37:12.453Z,15.51
2023-03-04T12:39:46.612Z,15.63
2023-03-04T12:42:24.234Z,15.58
2023-03-04T12:45:07.366Z,15.68
2023-03-04T12:47:46.553Z,15.77
2023-03-04T12:50:33.348Z,15.85
2023-03-04T12:53:14.020Z,15.83
2023-03-04T12:55:45.563Z,15.75
2023-03-04T12:58:18.307Z,15.79
2023-03-04T13:00:56.702Z,15.88
2023-03-04T13:03:35.175Z,15.92
2023-03-04T13:06:14.970Z,15.91
2023-03-04T13:08:56.084Z,16.01
2023-03-04T13:11:55.910Z,16.15
2023-03-04T13:14:31.005Z,16.26
2023-03-04T13:17:02.014Z,16.41
2023-03-04T13:19:52.696Z,16.50
2023-03-04T13:22:47.265Z,16.50
2023-03-04T13:25:38.739Z,16.54
2023-03-04T13:28:32.183Z,16.43
2023-03-04T13:31:15.425Z,16.43
2023-03-04T13:33:56.648Z,16.40
2023-03-04T13:36:57.483Z,16.38
2023-03-04T13:39:29.781Z,16.33
2023-03-04T13:41:59.851Z,16.32
2023-03-04T13:44:53.973Z,16.26
2023-03-04T13:47:28.632Z,16.04
2023-03-04T13:50:25.580Z,16.24
2023-03-04T13:52:55.571Z,16.19
2023-03-04T13:55:36.275Z,16.22
2023-03-04T13:58:18.774Z,16.24
2023-03-04T14:00:51.310Z,16.22
2023-03-04T14:03:28.572Z,16.26
2023-03-04T14:06:20.546Z,16.26
2023-03-04T14:08:50.421Z,16.23
2023-03-04T14:11:31.646Z,16.26
2023-03-04T14:14:05.574Z,16.27
2023-03-04T14:16:39.573Z,16.29
2023-03-04T14:19:16.123Z,16.21
2023-03-04T14:21:47.361Z,16.22
2023-03-04T14:24:17.758Z,16.20
2023-03-04T14:26:46.304Z,16.12
2023-03-04T14:29:27.716Z,16.06
2023-03-04T14:31:56.924Z,15.98
2023-03-04T14:34:33.397Z,16.12
2023-03-04T14:37:03.403Z,16.14
2023-03-04T14:39:36.001Z,16.02
2023-03-04T14:42:10.441Z,16.23
2023-03-04T14:44:48.507Z,16.24
2023-03-04T14:47:21.321Z,16.25
2023-03-04T14:49:50.349Z,16.29
2023-03-04T14:52:39.642Z,16.24
2023-03-04T14:55:22.375Z,15.87
2023-03-04T14:57:58.541Z,16.02
2023-03-04T15:00:31.916Z,15.71
2023-03-04T15:03:02.756Z,15.94
2023-03-04T15:05:33.203Z,15.94
2023-03-04T15:08:04.096Z,15.91
2023-03-04T15:10:35.168Z,15.86
2023-03-04T15:13:05.469Z,15.79
2023-03-04T15:15:42.661Z,15.61
2023-03-04T15:18:26.376Z,15.78
2023-03-04T15:20:59.914Z,15.77
2023-03-04T15:23:29.596Z,15.75
2023-03-04T15:26:00.039Z,15.74
2023-03-04T15:28:31.668Z,15.69
2023-03-04T15:31:01.514Z,15.64
2023-03-04T15:33:30.046Z,15.54
2023-03-04T15:36:00.463Z,15.52
2023-03-04T15:38:29.800Z,15.55
2023-03-04T15:40:59.767Z,15.52
2023-03-04T15:43:28.371Z,15.50
2023-03-04T15:45:56.893Z,15.43
2023-03-04T15:48:26.724Z,15.35
2023-03-04T15:50:58.282Z,15.31
2023-03-04T15:53:32.821Z,15.22
2023-03-04T15:56:02.261Z,15.26
2023-03-04T15:58:33.818Z,15.15
2023-03-04T16:01:03.618Z,15.07
2023-03-04T16:03:33.932Z,15.02
2023-03-04T16:06:02.486Z,14.97
2023-03-04T16:08:30.834Z,14.87
2023-03-04T16:10:59.412Z,14.81
2023-03-04T16:13:27.813Z,14.75
2023-03-04T16:15:56.362Z,14.66
2023-03-04T16:18:25.078Z,14.56
2023-03-04T16:20:54.954Z,14.56
2023-03-04T16:23:26.058Z,14.33
2023-03-04T16:25:57.929Z,14.49
2023-03-04T16:28:26.423Z,14.41
2023-03-04T16:30:54.862Z,14.37
2023-03-04T16:33:23.218Z,14.28
2023-03-04T16:35:52.515Z,14.21
2023-03-04T16:38:27.154Z,14.15
2023-03-04T16:40:57.117Z,14.03
2023-03-04T16:43:25.965Z,13.97
2023-03-04T16:45:54.445Z,13.82
2023-03-04T16:48:22.796Z,13.78
2023-03-04T16:50:51.516Z,13.74
2023-03-04T16:53:29.314Z,13.67
2023-03-04T16:56:00.028Z,13.58
2023-03-04T16:58:28.741Z,13.41
2023-03-04T17:00:57.220Z,13.45
2023-03-04T17:03:25.722Z,13.46
2023-03-04T17:05:54.046Z,13.42
2023-03-04T17:08:22.397Z,13.39
2023-03-04T17:10:52.618Z,13.32
2023-03-04T17:13:21.019Z,13.23
2023-03-04T17:15:49.564Z,13.21
2023-03-04T17:18:18.040Z,13.15
2023-03-04T17:20:46.546Z,13.09
2023-03-04T17:23:14.949Z,13.05
2023-03-04T17:25:43.324Z,12.99
2023-03-04T17:28:13.228Z,12.86
2023-03-04T17:30:41.589Z,12.75
2023-03-04T17:33:10.039Z,12.66
2023-03-04T17:35:40.974Z,12.58
2023-03-04T17:38:09.574Z,12.50
2023-03-04T17:40:38.049Z,12.40
2023-03-04T17:43:11.561Z,12.35
2023-03-04T17:45:42.008Z,12.26
2023-03-04T17:48:15.079Z,12.07
2023-03-04T17:50:50.163Z,12.00
2023-03-04T17:53:18.895Z,11.90
2023-03-04T17:55:51.060Z,11.86
2023-03-04T17:58:19.985Z,11.80
2023-03-04T18:00:50.960Z,11.76
2023-03-04T18:03:20.581Z,11.65
2023-03-04T18:05:48.854Z,11.52
2023-03-04T18:08:17.218Z,11.44
2023-03-04T18:10:45.590Z,11.40
2023-03-04T18:13:13.986Z,11.38
2023-03-04T18:15:42.398Z,11.35
2023-03-04T18:18:12.235Z,11.32
2023-03-04T18:20:40.737Z,11.22
2023-03-04T18:23:09.226Z,11.09
2023-03-04T18:25:37.756Z,10.98
2023-03-04T18:28:06.483Z,10.93
2023-03-04T18:30:34.914Z,10.80
2023-03-04T18:33:04.202Z,11.58
2023-03-04T18:35:34.121Z,11.06
2023-03-04T18:38:02.571Z,10.81
2023-03-04T18:40:31.888Z,10.69
2023-03-04T18:43:00.273Z,10.60
2023-03-04T18:45:28.991Z,10.57
2023-03-04T18:47:58.315Z,10.52
2023-03-04T18:50:26.888Z,10.51
2023-03-04T18:52:56.728Z,10.48
2023-03-04T18:55:25.508Z,10.46
2023-03-04T18:57:58.174Z,10.40
2023-03-04T19:00:26.957Z,10.34
2023-03-04T19:03:00.047Z,10.34
2023-03-04T19:05:32.921Z,10.29
2023-03-04T19:08:02.785Z,10.26
2023-03-04T19:10:31.279Z,10.18
2023-03-04T19:12:59.810Z,10.15
2023-03-04T19:15:28.322Z,10.09
2023-03-04T19:17:56.738Z,10.08
2023-03-04T19:20:25.239Z,10.05
2023-03-04T19:22:53.671Z,10.01
2023-03-04T19:25:23.581Z,10.00
2023-03-04T19:27:55.506Z,9.96
2023-03-04T19:30:24.051Z,9.93
2023-03-04T19:32:52.462Z,9.90
2023-03-04T19:35:20.836Z,9.83
2023-03-04T19:37:49.385Z,9.80
2023-03-04T19:40:17.957Z,9.79
2023-03-04T19:42:47.727Z,9.79
2023-03-04T19:45:16.319Z,9.80
2023-03-04T19:47:44.686Z,9.80
2023-03-04T19:50:14.255Z,9.68
2023-03-04T19:52:43.399Z,9.80
2023-03-04T19:55:13.931Z,9.78
2023-03-04T19:57:43.452Z,9.78
2023-03-04T20:00:15.476Z,9.72
2023-03-04T20:02:45.702Z,9.72
2023-03-04T20:05:14.111Z,9.70
2023-03-04T20:07:43.995Z,9.67
2023-03-04T20:10:14.485Z,9.51
2023-03-04T20:12:43.043Z,9.61
2023-03-04T20:15:13.580Z,9.63
2023-03-04T20:17:42.113Z,9.61
2023-03-04T20:20:12.603Z,9.62
2023-03-04T20:22:41.109Z,9.57
2023-03-04T20:25:10.094Z,9.60
2023-03-04T20:27:38.555Z,9.61
2023-03-04T20:30:07.868Z,9.62
2023-03-04T20:32:37.724Z,9.60
2023-03-04T20:35:06.887Z,9.30
2023-03-04T20:37:36.236Z,9.54
2023-03-04T20:40:04.863Z,9.50
2023-03-04T20:42:34.058Z,9.48
2023-03-04T20:45:02.444Z,9.48
2023-03-04T20:47:31.365Z,9.01
2023-03-04T20:50:01.128Z,9.37
2023-03-04T20:52:29.485Z,9.34
2023-03-04T20:54:57.975Z,9.31
2023-03-04T20:57:26.392Z,9.26
2023-03-04T20:59:54.999Z,9.18
2023-03-04T21:02:23.625Z,9.12
2023-03-04T21:04:52.249Z,8.27
2023-03-04T21:07:22.026Z,8.84
2023-03-04T21:09:50.425Z,8.96
2023-03-04T21:12:18.910Z,8.92
2023-03-04T21:14:47.874Z,8.91
2023-03-04T21:17:16.732Z,8.89
2023-03-04T21:19:46.820Z,8.86
2023-03-04T21:22:17.201Z,8.79
2023-03-04T21:24:48.060Z,8.72
2023-03-04T21:27:16.979Z,8.62
2023-03-04T21:29:46.494Z,8.55
2023-03-04T21:32:24.143Z,8.50
2023-03-04T21:34:54.026Z,8.43
2023-03-04T21:37:23.864Z,8.40
2023-03-04T21:39:54.415Z,8.43
2023-03-04T21:42:22.975Z,8.39
2023-03-04T21:44:52.057Z,8.38
2023-03-04T21:47:21.172Z,8.41
2023-03-04T21:49:50.043Z,8.44
2023-03-04T21:52:19.252Z,8.44
2023-03-04T21:54:48.351Z,8.47
2023-03-04T21:57:18.596Z,8.42
2023-03-04T21:59:47.516Z,8.50
2023-03-04T22:02:17.560Z,8.57
2023-03-04T22:04:46.500Z,8.57
2023-03-04T22:07:15.479Z,8.64
2023-03-04T22:09:43.940Z,8.61
2023-03-04T22:12:12.905Z,8.24
2023-03-04T22:14:42.754Z,8.57
2023-03-04T22:17:11.195Z,8.51
2023-03-04T22:19:39.570Z,8.43
2023-03-04T22:22:08.029Z,8.40
2023-03-04T22:24:36.375Z,8.36
2023-03-04T22:27:04.897Z,8.21
2023-03-04T22:29:33.310Z,8.11
2023-03-04T22:32:03.228Z,7.99
2023-03-04T22:34:31.768Z,8.48
2023-03-04T22:37:00.211Z,8.21
2023-03-04T22:39:28.784Z,8.08
2023-03-04T22:41:57.245Z,8.00
2023-03-04T22:44:25.700Z,8.39
2023-03-04T22:46:54.123Z,8.16
2023-03-04T22:49:23.912Z,8.03
2023-03-04T22:51:52.272Z,7.98
2023-03-04T22:54:21.063Z,7.95
2023-03-04T22:56:49.534Z,7.90
2023-03-04T22:59:17.986Z,7.91
2023-03-04T23:01:46.361Z,7.92
2023-03-04T23:04:14.837Z,7.90
2023-03-04T23:06:44.716Z,7.87
2023-03-04T23:09:13.187Z,7.83
2023-03-04T23:11:41.613Z,7.81
2023-03-04T23:14:11.987Z,7.80
2023-03-04T23:16:43.407Z,7.69
2023-03-04T23:19:13.841Z,7.57
2023-03-04T23:21:42.799Z,7.49
2023-03-04T23:24:14.068Z,7.49
2023-03-04T23:26:43.584Z,7.45
2023-03-04T23:29:15.851Z,7.43
2023-03-04T23:31:44.799Z,7.39
2023-03-04T23:34:13.321Z,7.37
2023-03-04T23:36:43.270Z,7.27
2023-03-04T23:39:14.350Z,7.30
2023-03-04T23:41:43.988Z,7.03
2023-03-04T23:44:13.197Z,7.22
2023-03-04T23:46:42.161Z,7.24
2023-03-04T23:49:14.173Z,7.26
2023-03-04T23:51:44.458Z,7.28
2023-03-04T23:54:15.061Z,7.26
2023-03-04T23:56:43.537Z,7.24
2023-03-04T23:59:12.364Z,7.24
